sensor_id;sensor_type;location;lat;lon;timestamp;temperature;humidity
12957;DHT22;6543;48.836;10.092;2022-07-05T00:01:02;16.80;99.90
12957;DHT22;6543;48.836;10.092;2022-07-05T00:03:29;16.80;99.90
12957;DHT22;6543;48.836;10.092;2022-07-05T00:05:57;16.80;99.90
12957;DHT22;6543;48.836;10.092;2022-07-05T00:08:24;16.80;99.90
12957;DHT22;6543;48.836;10.092;2022-07-05T00:10:51;16.70;99.90
12957;DHT22;6543;48.836;10.092;2022-07-05T00:13:19;16.70;99.90
12957;DHT22;6543;48.836;10.092;2022-07-05T00:15:47;16.50;99.90
12957;DHT22;6543;48.836;10.092;2022-07-05T00:18:15;16.40;99.90
12957;DHT22;6543;48.836;10.092;2022-07-05T00:20:42;16.40;99.90
12957;DHT22;6543;48.836;10.092;2022-07-05T00:23:09;16.40;99.90
12957;DHT22;6543;48.836;10.092;2022-07-05T00:25:36;16.30;99.90
12957;DHT22;6543;48.836;10.092;2022-07-05T00:28:03;16.30;99.90
12957;DHT22;6543;48.836;10.092;2022-07-05T00:30:30;16.10;99.90
12957;DHT22;6543;48.836;10.092;2022-07-05T00:32:58;16.00;99.90
12957;DHT22;6543;48.836;10.092;2022-07-05T00:35:25;15.90;99.90
12957;DHT22;6543;48.836;10.092;2022-07-05T00:37:52;15.70;99.90
12957;DHT22;6543;48.836;10.092;2022-07-05T00:40:19;15.80;99.90
12957;DHT22;6543;48.836;10.092;2022-07-05T00:42:46;15.80;99.90
12957;DHT22;6543;48.836;10.092;2022-07-05T00:45:12;15.70;99.90
12957;DHT22;6543;48.836;10.092;2022-07-05T00:47:39;15.70;99.90
12957;DHT22;6543;48.836;10.092;2022-07-05T00:50:08;15.50;99.90
12957;DHT22;6543;48.836;10.092;2022-07-05T00:52:36;15.40;99.90
12957;DHT22;6543;48.836;10.092;2022-07-05T00:55:03;15.40;99.90
12957;DHT22;6543;48.836;10.092;2022-07-05T00:57:31;15.50;99.90
12957;DHT22;6543;48.836;10.092;2022-07-05T00:59:59;15.60;99.90
12957;DHT22;6543;48.836;10.092;2022-07-05T01:02:26;15.50;99.90
12957;DHT22;6543;48.836;10.092;2022-07-05T01:04:53;15.40;99.90
12957;DHT22;6543;48.836;10.092;2022-07-05T01:07:22;15.40;99.90
12957;DHT22;6543;48.836;10.092;2022-07-05T01:09:51;15.30;99.90
12957;DHT22;6543;48.836;10.092;2022-07-05T01:12:18;15.20;99.90
12957;DHT22;6543;48.836;10.092;2022-07-05T01:14:45;15.20;99.90
12957;DHT22;6543;48.836;10.092;2022-07-05T01:17:12;15.20;99.90
12957;DHT22;6543;48.836;10.092;2022-07-05T01:19:39;15.20;99.90
12957;DHT22;6543;48.836;10.092;2022-07-05T01:22:12;15.10;99.90
12957;DHT22;6543;48.836;10.092;2022-07-05T01:24:43;15.10;99.90
12957;DHT22;6543;48.836;10.092;2022-07-05T01:27:11;15.10;99.90
12957;DHT22;6543;48.836;10.092;2022-07-05T01:29:38;15.00;99.90
12957;DHT22;6543;48.836;10.092;2022-07-05T01:32:06;14.80;99.90
12957;DHT22;6543;48.836;10.092;2022-07-05T01:34:38;14.70;99.90
12957;DHT22;6543;48.836;10.092;2022-07-05T01:37:05;14.60;99.90
12957;DHT22;6543;48.836;10.092;2022-07-05T01:39:32;14.60;99.90
12957;DHT22;6543;48.836;10.092;2022-07-05T01:42:01;14.50;99.90
12957;DHT22;6543;48.836;10.092;2022-07-05T01:44:28;14.60;99.90
12957;DHT22;6543;48.836;10.092;2022-07-05T01:46:59;14.60;99.90
12957;DHT22;6543;48.836;10.092;2022-07-05T01:49:32;14.40;99.90
12957;DHT22;6543;48.836;10.092;2022-07-05T01:52:04;14.40;99.90
12957;DHT22;6543;48.836;10.092;2022-07-05T01:54:33;14.30;99.90
12957;DHT22;6543;48.836;10.092;2022-07-05T01:57:02;14.20;99.90
12957;DHT22;6543;48.836;10.092;2022-07-05T01:59:31;14.20;99.90
12957;DHT22;6543;48.836;10.092;2022-07-05T02:01:59;14.10;99.90
12957;DHT22;6543;48.836;10.092;2022-07-05T02:04:26;14.00;99.90
12957;DHT22;6543;48.836;10.092;2022-07-05T02:06:54;14.00;99.90
12957;DHT22;6543;48.836;10.092;2022-07-05T02:09:20;14.10;99.90
12957;DHT22;6543;48.836;10.092;2022-07-05T02:11:47;14.20;99.90
12957;DHT22;6543;48.836;10.092;2022-07-05T02:14:16;14.20;99.90
12957;DHT22;6543;48.836;10.092;2022-07-05T02:16:42;14.00;99.90
12957;DHT22;6543;48.836;10.092;2022-07-05T02:19:09;14.00;99.90
12957;DHT22;6543;48.836;10.092;2022-07-05T02:21:36;14.10;99.90
12957;DHT22;6543;48.836;10.092;2022-07-05T02:24:04;14.10;99.90
12957;DHT22;6543;48.836;10.092;2022-07-05T02:26:31;14.00;99.90
12957;DHT22;6543;48.836;10.092;2022-07-05T02:28:58;13.90;99.90
12957;DHT22;6543;48.836;10.092;2022-07-05T02:31:27;13.80;99.90
12957;DHT22;6543;48.836;10.092;2022-07-05T02:33:54;14.00;99.90
12957;DHT22;6543;48.836;10.092;2022-07-05T02:36:21;14.10;99.90
12957;DHT22;6543;48.836;10.092;2022-07-05T02:38:48;14.10;99.90
12957;DHT22;6543;48.836;10.092;2022-07-05T02:41:15;14.00;99.90
12957;DHT22;6543;48.836;10.092;2022-07-05T02:43:42;14.00;99.90
12957;DHT22;6543;48.836;10.092;2022-07-05T02:46:09;14.00;99.90
12957;DHT22;6543;48.836;10.092;2022-07-05T02:48:37;13.90;99.90
12957;DHT22;6543;48.836;10.092;2022-07-05T02:51:05;13.80;99.90
12957;DHT22;6543;48.836;10.092;2022-07-05T02:53:32;13.90;99.90
12957;DHT22;6543;48.836;10.092;2022-07-05T02:56:00;13.80;99.90
12957;DHT22;6543;48.836;10.092;2022-07-05T02:58:27;13.70;99.90
12957;DHT22;6543;48.836;10.092;2022-07-05T03:00:54;13.70;99.90
12957;DHT22;6543;48.836;10.092;2022-07-05T03:03:21;13.70;99.90
12957;DHT22;6543;48.836;10.092;2022-07-05T03:05:49;13.70;99.90
12957;DHT22;6543;48.836;10.092;2022-07-05T03:08:16;13.60;99.90
12957;DHT22;6543;48.836;10.092;2022-07-05T03:10:43;13.60;99.90
12957;DHT22;6543;48.836;10.092;2022-07-05T03:13:10;13.60;99.90
12957;DHT22;6543;48.836;10.092;2022-07-05T03:15:36;13.50;99.90
12957;DHT22;6543;48.836;10.092;2022-07-05T03:18:03;13.60;99.90
12957;DHT22;6543;48.836;10.092;2022-07-05T03:20:30;13.50;99.90
12957;DHT22;6543;48.836;10.092;2022-07-05T03:22:58;13.50;99.90
12957;DHT22;6543;48.836;10.092;2022-07-05T03:25:25;13.50;99.90
12957;DHT22;6543;48.836;10.092;2022-07-05T03:27:52;13.40;99.90
12957;DHT22;6543;48.836;10.092;2022-07-05T03:30:19;13.40;99.90
12957;DHT22;6543;48.836;10.092;2022-07-05T03:32:47;13.30;99.90
12957;DHT22;6543;48.836;10.092;2022-07-05T03:35:13;13.30;99.90
12957;DHT22;6543;48.836;10.092;2022-07-05T03:37:40;13.40;99.90
12957;DHT22;6543;48.836;10.092;2022-07-05T03:40:09;13.40;99.90
12957;DHT22;6543;48.836;10.092;2022-07-05T03:42:36;13.30;99.90
12957;DHT22;6543;48.836;10.092;2022-07-05T03:45:04;13.30;99.90
12957;DHT22;6543;48.836;10.092;2022-07-05T03:47:31;13.40;99.90
12957;DHT22;6543;48.836;10.092;2022-07-05T03:49:58;13.50;99.90
12957;DHT22;6543;48.836;10.092;2022-07-05T03:52:25;13.50;99.90
12957;DHT22;6543;48.836;10.092;2022-07-05T03:54:51;13.50;99.90
12957;DHT22;6543;48.836;10.092;2022-07-05T03:57:20;13.70;99.90
12957;DHT22;6543;48.836;10.092;2022-07-05T03:59:47;13.70;99.90
12957;DHT22;6543;48.836;10.092;2022-07-05T04:02:14;13.70;99.90
12957;DHT22;6543;48.836;10.092;2022-07-05T04:04:41;13.80;99.90
12957;DHT22;6543;48.836;10.092;2022-07-05T04:07:08;13.80;99.90
12957;DHT22;6543;48.836;10.092;2022-07-05T04:09:35;13.90;99.90
12957;DHT22;6543;48.836;10.092;2022-07-05T04:12:02;14.00;99.90
12957;DHT22;6543;48.836;10.092;2022-07-05T04:14:31;14.00;99.90
12957;DHT22;6543;48.836;10.092;2022-07-05T04:16:58;14.20;99.90
12957;DHT22;6543;48.836;10.092;2022-07-05T04:19:25;14.30;99.90
12957;DHT22;6543;48.836;10.092;2022-07-05T04:21:52;14.30;99.90
12957;DHT22;6543;48.836;10.092;2022-07-05T04:24:19;14.40;99.90
12957;DHT22;6543;48.836;10.092;2022-07-05T04:26:46;14.30;99.90
12957;DHT22;6543;48.836;10.092;2022-07-05T04:29:13;14.30;99.90
12957;DHT22;6543;48.836;10.092;2022-07-05T04:31:41;14.40;99.90
12957;DHT22;6543;48.836;10.092;2022-07-05T04:34:08;14.50;99.90
12957;DHT22;6543;48.836;10.092;2022-07-05T04:36:35;14.60;99.90
12957;DHT22;6543;48.836;10.092;2022-07-05T04:39:06;14.70;99.90
12957;DHT22;6543;48.836;10.092;2022-07-05T04:41:33;14.80;99.90
12957;DHT22;6543;48.836;10.092;2022-07-05T04:44:00;14.80;99.90
12957;DHT22;6543;48.836;10.092;2022-07-05T04:46:27;14.80;99.90
12957;DHT22;6543;48.836;10.092;2022-07-05T04:48:55;14.80;99.90
12957;DHT22;6543;48.836;10.092;2022-07-05T04:51:22;14.80;99.90
12957;DHT22;6543;48.836;10.092;2022-07-05T04:53:49;15.00;99.90
12957;DHT22;6543;48.836;10.092;2022-07-05T04:56:16;15.20;99.90
12957;DHT22;6543;48.836;10.092;2022-07-05T04:58:43;15.30;99.90
12957;DHT22;6543;48.836;10.092;2022-07-05T05:01:10;15.40;99.90
12957;DHT22;6543;48.836;10.092;2022-07-05T05:03:37;15.50;99.90
12957;DHT22;6543;48.836;10.092;2022-07-05T05:06:05;15.70;99.90
12957;DHT22;6543;48.836;10.092;2022-07-05T05:08:32;16.00;99.90
12957;DHT22;6543;48.836;10.092;2022-07-05T05:10:59;16.30;99.90
12957;DHT22;6543;48.836;10.092;2022-07-05T05:13:25;16.40;99.90
12957;DHT22;6543;48.836;10.092;2022-07-05T05:15:52;16.70;99.90
12957;DHT22;6543;48.836;10.092;2022-07-05T05:18:19;16.80;99.90
12957;DHT22;6543;48.836;10.092;2022-07-05T05:20:50;17.00;99.90
12957;DHT22;6543;48.836;10.092;2022-07-05T05:23:18;17.30;99.90
12957;DHT22;6543;48.836;10.092;2022-07-05T05:25:47;17.50;99.90
12957;DHT22;6543;48.836;10.092;2022-07-05T05:28:14;17.50;99.90
12957;DHT22;6543;48.836;10.092;2022-07-05T05:30:41;17.70;99.90
12957;DHT22;6543;48.836;10.092;2022-07-05T05:33:08;18.00;99.90
12957;DHT22;6543;48.836;10.092;2022-07-05T05:35:35;18.20;99.90
12957;DHT22;6543;48.836;10.092;2022-07-05T05:38:02;18.20;99.90
12957;DHT22;6543;48.836;10.092;2022-07-05T05:40:31;18.40;99.90
12957;DHT22;6543;48.836;10.092;2022-07-05T05:42:58;18.30;99.90
12957;DHT22;6543;48.836;10.092;2022-07-05T05:45:25;18.30;99.90
12957;DHT22;6543;48.836;10.092;2022-07-05T05:47:54;18.50;99.90
12957;DHT22;6543;48.836;10.092;2022-07-05T05:50:23;18.60;99.90
12957;DHT22;6543;48.836;10.092;2022-07-05T05:52:50;18.30;99.90
12957;DHT22;6543;48.836;10.092;2022-07-05T05:55:18;18.10;99.90
12957;DHT22;6543;48.836;10.092;2022-07-05T05:57:46;18.10;99.90
12957;DHT22;6543;48.836;10.092;2022-07-05T06:00:15;18.20;99.90
12957;DHT22;6543;48.836;10.092;2022-07-05T06:02:42;18.40;99.90
12957;DHT22;6543;48.836;10.092;2022-07-05T06:05:10;18.40;99.90
12957;DHT22;6543;48.836;10.092;2022-07-05T06:07:45;18.50;99.90
12957;DHT22;6543;48.836;10.092;2022-07-05T06:10:15;18.60;99.90
12957;DHT22;6543;48.836;10.092;2022-07-05T06:12:42;18.90;99.90
12957;DHT22;6543;48.836;10.092;2022-07-05T06:15:10;19.00;99.90
12957;DHT22;6543;48.836;10.092;2022-07-05T06:17:37;19.00;99.90
12957;DHT22;6543;48.836;10.092;2022-07-05T06:20:06;18.90;99.90
12957;DHT22;6543;48.836;10.092;2022-07-05T06:22:33;20.40;99.90
12957;DHT22;6543;48.836;10.092;2022-07-05T06:25:00;18.70;99.90
12957;DHT22;6543;48.836;10.092;2022-07-05T06:27:27;19.00;99.90
12957;DHT22;6543;48.836;10.092;2022-07-05T06:29:54;19.30;99.90
12957;DHT22;6543;48.836;10.092;2022-07-05T06:32:22;19.10;99.90
12957;DHT22;6543;48.836;10.092;2022-07-05T06:34:49;19.20;99.90
12957;DHT22;6543;48.836;10.092;2022-07-05T06:37:16;19.00;99.90
12957;DHT22;6543;48.836;10.092;2022-07-05T06:39:43;19.20;99.90
12957;DHT22;6543;48.836;10.092;2022-07-05T06:42:10;19.40;99.90
12957;DHT22;6543;48.836;10.092;2022-07-05T06:44:37;19.70;99.90
12957;DHT22;6543;48.836;10.092;2022-07-05T06:47:04;19.80;99.90
12957;DHT22;6543;48.836;10.092;2022-07-05T06:49:32;20.00;99.90
12957;DHT22;6543;48.836;10.092;2022-07-05T06:51:59;19.80;99.90
12957;DHT22;6543;48.836;10.092;2022-07-05T06:54:26;19.80;99.90
12957;DHT22;6543;48.836;10.092;2022-07-05T06:56:53;19.80;99.90
12957;DHT22;6543;48.836;10.092;2022-07-05T06:59:21;20.20;99.90
12957;DHT22;6543;48.836;10.092;2022-07-05T07:01:47;20.40;99.90
12957;DHT22;6543;48.836;10.092;2022-07-05T07:04:14;20.50;99.90
12957;DHT22;6543;48.836;10.092;2022-07-05T07:06:42;20.50;99.90
12957;DHT22;6543;48.836;10.092;2022-07-05T07:09:09;20.30;99.90
12957;DHT22;6543;48.836;10.092;2022-07-05T07:11:46;20.10;99.90
12957;DHT22;6543;48.836;10.092;2022-07-05T07:14:14;20.20;99.90
12957;DHT22;6543;48.836;10.092;2022-07-05T07:16:40;20.60;99.90
12957;DHT22;6543;48.836;10.092;2022-07-05T07:19:07;20.60;99.90
12957;DHT22;6543;48.836;10.092;2022-07-05T07:21:34;20.60;99.90
12957;DHT22;6543;48.836;10.092;2022-07-05T07:24:03;20.90;99.90
12957;DHT22;6543;48.836;10.092;2022-07-05T07:26:30;21.10;99.90
12957;DHT22;6543;48.836;10.092;2022-07-05T07:29:17;21.30;99.90
12957;DHT22;6543;48.836;10.092;2022-07-05T07:31:44;21.20;99.90
12957;DHT22;6543;48.836;10.092;2022-07-05T07:34:10;21.40;99.90
12957;DHT22;6543;48.836;10.092;2022-07-05T07:36:37;21.80;99.90
12957;DHT22;6543;48.836;10.092;2022-07-05T07:39:05;21.80;99.90
12957;DHT22;6543;48.836;10.092;2022-07-05T07:41:32;21.70;99.90
12957;DHT22;6543;48.836;10.092;2022-07-05T07:43:59;21.70;99.90
12957;DHT22;6543;48.836;10.092;2022-07-05T07:46:26;21.50;99.90
12957;DHT22;6543;48.836;10.092;2022-07-05T07:48:54;21.60;99.90
12957;DHT22;6543;48.836;10.092;2022-07-05T07:51:21;21.70;99.90
12957;DHT22;6543;48.836;10.092;2022-07-05T07:53:48;21.40;99.90
12957;DHT22;6543;48.836;10.092;2022-07-05T07:56:16;21.60;99.90
12957;DHT22;6543;48.836;10.092;2022-07-05T07:58:43;21.80;99.90
12957;DHT22;6543;48.836;10.092;2022-07-05T08:01:10;22.10;99.90
12957;DHT22;6543;48.836;10.092;2022-07-05T08:03:37;21.90;99.90
12957;DHT22;6543;48.836;10.092;2022-07-05T08:06:04;21.80;99.90
12957;DHT22;6543;48.836;10.092;2022-07-05T08:08:33;22.20;99.90
12957;DHT22;6543;48.836;10.092;2022-07-05T08:11:00;22.00;99.90
12957;DHT22;6543;48.836;10.092;2022-07-05T08:13:28;22.30;99.90
12957;DHT22;6543;48.836;10.092;2022-07-05T08:15:55;22.20;99.90
12957;DHT22;6543;48.836;10.092;2022-07-05T08:18:22;22.10;99.90
12957;DHT22;6543;48.836;10.092;2022-07-05T08:21:07;22.60;99.90
12957;DHT22;6543;48.836;10.092;2022-07-05T08:23:51;22.40;99.90
12957;DHT22;6543;48.836;10.092;2022-07-05T08:26:18;22.90;99.90
12957;DHT22;6543;48.836;10.092;2022-07-05T08:28:46;23.00;99.90
12957;DHT22;6543;48.836;10.092;2022-07-05T08:31:14;22.80;99.90
12957;DHT22;6543;48.836;10.092;2022-07-05T08:33:41;22.80;99.90
12957;DHT22;6543;48.836;10.092;2022-07-05T08:36:08;22.70;99.90
12957;DHT22;6543;48.836;10.092;2022-07-05T08:38:35;23.00;99.90
12957;DHT22;6543;48.836;10.092;2022-07-05T08:41:02;23.00;99.90
12957;DHT22;6543;48.836;10.092;2022-07-05T08:43:30;22.60;99.90
12957;DHT22;6543;48.836;10.092;2022-07-05T08:45:59;23.00;99.90
12957;DHT22;6543;48.836;10.092;2022-07-05T08:48:27;22.90;99.90
12957;DHT22;6543;48.836;10.092;2022-07-05T08:50:55;23.10;99.90
12957;DHT22;6543;48.836;10.092;2022-07-05T08:53:22;23.00;99.90
12957;DHT22;6543;48.836;10.092;2022-07-05T08:55:51;23.40;99.90
12957;DHT22;6543;48.836;10.092;2022-07-05T08:58:17;23.60;99.90
12957;DHT22;6543;48.836;10.092;2022-07-05T09:00:44;23.50;99.90
12957;DHT22;6543;48.836;10.092;2022-07-05T09:03:14;23.50;99.90
12957;DHT22;6543;48.836;10.092;2022-07-05T09:05:42;23.80;99.90
12957;DHT22;6543;48.836;10.092;2022-07-05T09:08:12;23.80;99.90
12957;DHT22;6543;48.836;10.092;2022-07-05T09:10:42;24.10;99.90
12957;DHT22;6543;48.836;10.092;2022-07-05T09:13:10;23.90;99.90
12957;DHT22;6543;48.836;10.092;2022-07-05T09:15:38;24.00;99.90
12957;DHT22;6543;48.836;10.092;2022-07-05T09:18:05;23.90;99.90
12957;DHT22;6543;48.836;10.092;2022-07-05T09:20:34;23.70;99.90
12957;DHT22;6543;48.836;10.092;2022-07-05T09:23:01;23.80;99.90
12957;DHT22;6543;48.836;10.092;2022-07-05T09:25:30;24.40;99.90
12957;DHT22;6543;48.836;10.092;2022-07-05T09:28:00;24.40;99.90
12957;DHT22;6543;48.836;10.092;2022-07-05T09:30:30;24.50;98.30
12957;DHT22;6543;48.836;10.092;2022-07-05T09:33:02;24.20;96.50
12957;DHT22;6543;48.836;10.092;2022-07-05T09:35:30;24.20;96.90
12957;DHT22;6543;48.836;10.092;2022-07-05T09:37:58;24.10;96.30
12957;DHT22;6543;48.836;10.092;2022-07-05T09:40:29;24.70;95.80
12957;DHT22;6543;48.836;10.092;2022-07-05T09:43:11;24.30;97.80
12957;DHT22;6543;48.836;10.092;2022-07-05T09:45:38;24.30;98.30
12957;DHT22;6543;48.836;10.092;2022-07-05T09:48:07;24.60;98.30
12957;DHT22;6543;48.836;10.092;2022-07-05T09:50:34;24.50;98.50
12957;DHT22;6543;48.836;10.092;2022-07-05T09:53:03;24.90;98.10
12957;DHT22;6543;48.836;10.092;2022-07-05T09:55:31;24.90;98.60
12957;DHT22;6543;48.836;10.092;2022-07-05T09:57:58;24.80;98.70
12957;DHT22;6543;48.836;10.092;2022-07-05T10:00:25;25.10;98.50
12957;DHT22;6543;48.836;10.092;2022-07-05T10:02:54;25.00;95.60
12957;DHT22;6543;48.836;10.092;2022-07-05T10:05:27;25.10;93.70
12957;DHT22;6543;48.836;10.092;2022-07-05T10:07:55;25.80;92.80
12957;DHT22;6543;48.836;10.092;2022-07-05T10:10:24;26.60;91.60
12957;DHT22;6543;48.836;10.092;2022-07-05T10:12:53;26.70;90.80
12957;DHT22;6543;48.836;10.092;2022-07-05T10:15:21;25.80;92.30
12957;DHT22;6543;48.836;10.092;2022-07-05T10:17:52;24.80;95.50
12957;DHT22;6543;48.836;10.092;2022-07-05T10:20:24;24.80;95.90
12957;DHT22;6543;48.836;10.092;2022-07-05T10:22:52;25.80;95.00
12957;DHT22;6543;48.836;10.092;2022-07-05T10:25:22;26.50;93.20
12957;DHT22;6543;48.836;10.092;2022-07-05T10:27:51;27.10;91.00
12957;DHT22;6543;48.836;10.092;2022-07-05T10:30:20;27.30;91.00
12957;DHT22;6543;48.836;10.092;2022-07-05T10:32:48;26.80;91.30
12957;DHT22;6543;48.836;10.092;2022-07-05T10:35:16;26.10;91.20
12957;DHT22;6543;48.836;10.092;2022-07-05T10:37:43;26.20;91.60
12957;DHT22;6543;48.836;10.092;2022-07-05T10:40:11;26.10;92.70
12957;DHT22;6543;48.836;10.092;2022-07-05T10:42:41;25.80;93.00
12957;DHT22;6543;48.836;10.092;2022-07-05T10:45:26;26.00;93.20
12957;DHT22;6543;48.836;10.092;2022-07-05T10:48:15;25.60;93.80
12957;DHT22;6543;48.836;10.092;2022-07-05T10:50:47;25.20;94.00
12957;DHT22;6543;48.836;10.092;2022-07-05T10:53:18;24.80;95.30
12957;DHT22;6543;48.836;10.092;2022-07-05T10:56:10;25.30;94.80
12957;DHT22;6543;48.836;10.092;2022-07-05T10:58:40;25.40;95.10
12957;DHT22;6543;48.836;10.092;2022-07-05T11:01:33;24.80;94.90
12957;DHT22;6543;48.836;10.092;2022-07-05T11:04:17;25.40;95.10
12957;DHT22;6543;48.836;10.092;2022-07-05T11:06:45;25.50;94.40
12957;DHT22;6543;48.836;10.092;2022-07-05T11:09:17;25.70;94.00
12957;DHT22;6543;48.836;10.092;2022-07-05T11:11:45;25.50;94.40
12957;DHT22;6543;48.836;10.092;2022-07-05T11:14:45;25.70;94.60
12957;DHT22;6543;48.836;10.092;2022-07-05T11:17:27;26.10;94.50
12957;DHT22;6543;48.836;10.092;2022-07-05T11:19:59;26.70;92.80
12957;DHT22;6543;48.836;10.092;2022-07-05T11:22:26;26.90;92.20
12957;DHT22;6543;48.836;10.092;2022-07-05T11:24:55;26.20;91.90
12957;DHT22;6543;48.836;10.092;2022-07-05T11:27:22;26.10;91.50
12957;DHT22;6543;48.836;10.092;2022-07-05T11:29:51;26.50;90.80
12957;DHT22;6543;48.836;10.092;2022-07-05T11:32:20;26.00;91.70
12957;DHT22;6543;48.836;10.092;2022-07-05T11:34:48;26.00;91.90
12957;DHT22;6543;48.836;10.092;2022-07-05T11:37:19;26.50;91.70
12957;DHT22;6543;48.836;10.092;2022-07-05T11:40:26;26.60;91.00
12957;DHT22;6543;48.836;10.092;2022-07-05T11:42:53;25.90;91.10
12957;DHT22;6543;48.836;10.092;2022-07-05T11:45:22;25.60;91.80
12957;DHT22;6543;48.836;10.092;2022-07-05T11:47:51;25.70;91.00
12957;DHT22;6543;48.836;10.092;2022-07-05T11:50:29;26.00;91.20
12957;DHT22;6543;48.836;10.092;2022-07-05T11:52:57;25.50;91.60
12957;DHT22;6543;48.836;10.092;2022-07-05T11:55:25;26.00;90.80
12957;DHT22;6543;48.836;10.092;2022-07-05T11:57:54;26.30;90.30
12957;DHT22;6543;48.836;10.092;2022-07-05T12:00:33;25.70;90.40
12957;DHT22;6543;48.836;10.092;2022-07-05T12:03:05;25.30;90.60
12957;DHT22;6543;48.836;10.092;2022-07-05T12:05:36;24.90;90.00
12957;DHT22;6543;48.836;10.092;2022-07-05T12:08:04;24.90;90.70
12957;DHT22;6543;48.836;10.092;2022-07-05T12:10:31;25.30;90.30
12957;DHT22;6543;48.836;10.092;2022-07-05T12:13:15;25.50;89.70
12957;DHT22;6543;48.836;10.092;2022-07-05T12:15:43;25.70;87.90
12957;DHT22;6543;48.836;10.092;2022-07-05T12:18:12;25.50;88.70
12957;DHT22;6543;48.836;10.092;2022-07-05T12:20:41;25.70;87.90
12957;DHT22;6543;48.836;10.092;2022-07-05T12:23:08;25.60;89.30
12957;DHT22;6543;48.836;10.092;2022-07-05T12:25:35;25.70;89.70
12957;DHT22;6543;48.836;10.092;2022-07-05T12:28:03;26.00;89.00
12957;DHT22;6543;48.836;10.092;2022-07-05T12:30:32;26.20;87.70
12957;DHT22;6543;48.836;10.092;2022-07-05T12:33:02;26.00;88.00
12957;DHT22;6543;48.836;10.092;2022-07-05T12:35:32;26.00;86.50
12957;DHT22;6543;48.836;10.092;2022-07-05T12:38:04;25.70;85.70
12957;DHT22;6543;48.836;10.092;2022-07-05T12:40:31;26.10;87.00
12957;DHT22;6543;48.836;10.092;2022-07-05T12:43:03;26.40;86.70
12957;DHT22;6543;48.836;10.092;2022-07-05T12:45:31;26.00;87.60
12957;DHT22;6543;48.836;10.092;2022-07-05T12:48:02;25.70;88.70
12957;DHT22;6543;48.836;10.092;2022-07-05T12:50:43;25.70;87.30
12957;DHT22;6543;48.836;10.092;2022-07-05T12:53:11;25.70;87.30
12957;DHT22;6543;48.836;10.092;2022-07-05T12:56:00;25.80;87.40
12957;DHT22;6543;48.836;10.092;2022-07-05T12:58:46;25.40;90.00
12957;DHT22;6543;48.836;10.092;2022-07-05T13:01:24;25.50;89.80
12957;DHT22;6543;48.836;10.092;2022-07-05T13:04:04;25.10;89.50
12957;DHT22;6543;48.836;10.092;2022-07-05T13:06:42;25.50;88.60
12957;DHT22;6543;48.836;10.092;2022-07-05T13:09:09;25.40;87.50
12957;DHT22;6543;48.836;10.092;2022-07-05T13:11:37;25.50;90.00
12957;DHT22;6543;48.836;10.092;2022-07-05T13:14:04;26.20;87.10
12957;DHT22;6543;48.836;10.092;2022-07-05T13:16:31;26.40;84.10
12957;DHT22;6543;48.836;10.092;2022-07-05T13:19:08;26.00;84.60
12957;DHT22;6543;48.836;10.092;2022-07-05T13:21:35;26.30;85.00
12957;DHT22;6543;48.836;10.092;2022-07-05T13:24:02;26.30;83.40
12957;DHT22;6543;48.836;10.092;2022-07-05T13:26:29;26.20;84.50
12957;DHT22;6543;48.836;10.092;2022-07-05T13:28:56;25.60;86.30
12957;DHT22;6543;48.836;10.092;2022-07-05T13:31:23;25.70;86.90
12957;DHT22;6543;48.836;10.092;2022-07-05T13:33:50;25.90;85.60
12957;DHT22;6543;48.836;10.092;2022-07-05T13:36:18;25.90;85.20
12957;DHT22;6543;48.836;10.092;2022-07-05T13:38:45;26.00;85.70
12957;DHT22;6543;48.836;10.092;2022-07-05T13:41:12;26.10;85.80
12957;DHT22;6543;48.836;10.092;2022-07-05T13:43:39;25.80;85.70
12957;DHT22;6543;48.836;10.092;2022-07-05T13:46:06;25.60;85.70
12957;DHT22;6543;48.836;10.092;2022-07-05T13:48:33;25.40;86.10
12957;DHT22;6543;48.836;10.092;2022-07-05T13:51:00;25.10;87.80
12957;DHT22;6543;48.836;10.092;2022-07-05T13:53:28;25.20;86.20
12957;DHT22;6543;48.836;10.092;2022-07-05T13:55:55;25.20;85.80
12957;DHT22;6543;48.836;10.092;2022-07-05T13:58:22;25.50;86.10
12957;DHT22;6543;48.836;10.092;2022-07-05T14:00:49;25.60;85.50
12957;DHT22;6543;48.836;10.092;2022-07-05T14:03:16;25.90;83.90
12957;DHT22;6543;48.836;10.092;2022-07-05T14:05:43;25.80;85.40
12957;DHT22;6543;48.836;10.092;2022-07-05T14:08:10;25.90;84.90
12957;DHT22;6543;48.836;10.092;2022-07-05T14:10:39;26.00;84.50
12957;DHT22;6543;48.836;10.092;2022-07-05T14:13:06;26.20;85.10
12957;DHT22;6543;48.836;10.092;2022-07-05T14:15:33;26.00;83.90
12957;DHT22;6543;48.836;10.092;2022-07-05T14:18:00;26.30;83.60
12957;DHT22;6543;48.836;10.092;2022-07-05T14:20:28;26.80;83.30
12957;DHT22;6543;48.836;10.092;2022-07-05T14:22:55;26.30;81.80
12957;DHT22;6543;48.836;10.092;2022-07-05T14:25:22;26.40;81.70
12957;DHT22;6543;48.836;10.092;2022-07-05T14:27:50;26.30;82.00
12957;DHT22;6543;48.836;10.092;2022-07-05T14:30:17;26.50;83.40
12957;DHT22;6543;48.836;10.092;2022-07-05T14:32:44;26.20;83.00
12957;DHT22;6543;48.836;10.092;2022-07-05T14:35:11;26.50;82.70
12957;DHT22;6543;48.836;10.092;2022-07-05T14:37:37;27.10;82.30
12957;DHT22;6543;48.836;10.092;2022-07-05T14:40:06;27.60;81.10
12957;DHT22;6543;48.836;10.092;2022-07-05T14:42:34;28.00;79.00
12957;DHT22;6543;48.836;10.092;2022-07-05T14:45:02;28.60;78.70
12957;DHT22;6543;48.836;10.092;2022-07-05T14:47:30;27.60;79.30
12957;DHT22;6543;48.836;10.092;2022-07-05T14:49:56;28.00;79.40
12957;DHT22;6543;48.836;10.092;2022-07-05T14:52:23;27.40;78.90
12957;DHT22;6543;48.836;10.092;2022-07-05T14:54:50;27.50;79.40
12957;DHT22;6543;48.836;10.092;2022-07-05T14:57:17;27.30;80.20
12957;DHT22;6543;48.836;10.092;2022-07-05T14:59:44;28.40;79.80
12957;DHT22;6543;48.836;10.092;2022-07-05T15:02:12;29.40;78.30
12957;DHT22;6543;48.836;10.092;2022-07-05T15:04:40;29.30;78.50
12957;DHT22;6543;48.836;10.092;2022-07-05T15:07:07;29.50;76.10
12957;DHT22;6543;48.836;10.092;2022-07-05T15:09:34;29.10;76.80
12957;DHT22;6543;48.836;10.092;2022-07-05T15:12:01;29.30;75.90
12957;DHT22;6543;48.836;10.092;2022-07-05T15:14:28;29.80;73.50
12957;DHT22;6543;48.836;10.092;2022-07-05T15:16:55;30.10;73.30
12957;DHT22;6543;48.836;10.092;2022-07-05T15:19:24;31.10;70.70
12957;DHT22;6543;48.836;10.092;2022-07-05T15:21:51;30.90;71.40
12957;DHT22;6543;48.836;10.092;2022-07-05T15:24:19;29.70;71.50
12957;DHT22;6543;48.836;10.092;2022-07-05T15:26:47;28.60;72.70
12957;DHT22;6543;48.836;10.092;2022-07-05T15:29:14;28.40;74.30
12957;DHT22;6543;48.836;10.092;2022-07-05T15:31:41;27.80;74.10
12957;DHT22;6543;48.836;10.092;2022-07-05T15:34:08;28.70;74.00
12957;DHT22;6543;48.836;10.092;2022-07-05T15:36:37;28.70;74.60
12957;DHT22;6543;48.836;10.092;2022-07-05T15:39:05;29.10;73.70